»·PEaware :: N12181 KLAX-KSNA

N12181 :: KLAX-KSNA

FLIGHT INFORMATION

Flight Status: Arrived
Operator: Privately registered:
United States
More flights under this callsign
Pilot: Kelly W. (14170)
Aircraft: CESSNA 172 SKYHAWK
(C172)
More flights by this aircraft type
Origin: KLAX Los Angeles Intl
United States
Destination: KSNA John Wayne-Orange Co
United States
More flights between these airports :: More routes between these airports
Route: KLAX SLI8 SLI KSNA
File this flight plan on PilotEdge
Remarks:
Altitude:
(Current/Filed)
4,000ft
Speed:
(Current/Filed)
110kts
Departed: 28-Nov-18 07:29 PM
Arrived: 28-Nov-18 08:05 PM
Distance/Time
Traveled:
31nm/0:36
Distance/Time
To Go:
Arrived

Flight Plot

Page will automatically refresh every two minutes.

Flight plan parsing failed; only flown route is shown


Map Options




Map Legend


Flown Route
Filed Route
Departure Airport
Arrival Airport
Navaid (VOR, NDB)
Fix

Horizontal Profiles

Position Reports

Time Latitude Longitude Heading Altitude Ground
Speed
28-Nov-18 19:14 33.941344 -118.397541 83 109ft 0kts
28-Nov-18 19:15 33.941344 -118.397541 83 109ft 0kts
28-Nov-18 19:16 33.941344 -118.397541 83 109ft 0kts
28-Nov-18 19:17 33.941344 -118.397541 83 109ft 0kts
28-Nov-18 19:18 33.941344 -118.397541 83 109ft 0kts
28-Nov-18 19:19 33.941344 -118.397541 83 109ft 0kts
28-Nov-18 19:20 33.941344 -118.397541 83 109ft 0kts
28-Nov-18 19:21 33.941344 -118.397541 83 109ft 0kts
28-Nov-18 19:22 33.941344 -118.397541 83 109ft 0kts
28-Nov-18 19:23 33.941344 -118.397541 83 109ft 0kts
28-Nov-18 19:24 33.941344 -118.397541 83 109ft 0kts
28-Nov-18 19:25 33.941344 -118.397541 83 109ft 0kts
28-Nov-18 19:26 33.939767 -118.397994 146 109ft 15kts
28-Nov-18 19:27 33.940348 -118.393405 77 102ft 13kts
28-Nov-18 19:28 33.941075 -118.384928 81 99ft 27kts
28-Nov-18 19:29 33.940695 -118.381486 84 96ft 26kts
28-Nov-18 19:30 33.940209 -118.380197 177 96ft 0kts
28-Nov-18 19:31 33.940162 -118.380192 172 96ft 9kts
28-Nov-18 19:32 33.938475 -118.397016 265 594ft 85kts
28-Nov-18 19:33 33.936733 -118.425259 263 1710ft 86kts
28-Nov-18 19:34 33.924919 -118.447540 215 2765ft 87kts
28-Nov-18 19:35 33.903502 -118.462292 213 3742ft 89kts
28-Nov-18 19:36 33.880578 -118.481028 214 4025ft 105kts
28-Nov-18 19:37 33.851948 -118.489014 176 3929ft 109kts
28-Nov-18 19:38 33.822237 -118.487228 182 3971ft 102kts
28-Nov-18 19:39 33.793017 -118.485466 141 3898ft 109kts
28-Nov-18 19:40 33.786835 -118.453351 95 4102ft 95kts
28-Nov-18 19:41 33.782620 -118.418926 93 4015ft 109kts
28-Nov-18 19:42 33.784589 -118.382951 84 4008ft 106kts
28-Nov-18 19:43 33.784741 -118.346133 95 3912ft 107kts
28-Nov-18 19:44 33.784237 -118.311021 84 3943ft 108kts
28-Nov-18 19:45 33.782702 -118.275042 99 3910ft 108kts
28-Nov-18 19:46 33.782672 -118.243513 89 3950ft 106kts
28-Nov-18 19:47 33.785548 -118.207806 86 3940ft 106kts
28-Nov-18 19:48 33.783879 -118.172710 90 3927ft 110kts
28-Nov-18 19:49 33.789355 -118.137046 78 3377ft 107kts
28-Nov-18 19:50 33.795780 -118.103754 78 2983ft 103kts
28-Nov-18 19:51 33.803170 -118.069335 76 2964ft 106kts
28-Nov-18 19:52 33.812332 -118.035841 65 3011ft 105kts
28-Nov-18 19:53 33.821805 -118.002341 67 3001ft 107kts
28-Nov-18 19:54 33.828164 -117.967826 83 3033ft 106kts
28-Nov-18 19:55 33.831772 -117.932595 80 3059ft 106kts
28-Nov-18 19:56 33.839911 -117.898043 75 3010ft 110kts
28-Nov-18 19:57 33.846104 -117.862277 79 2946ft 110kts
28-Nov-18 19:58 33.855495 -117.827938 63 2936ft 107kts
28-Nov-18 19:59 33.867478 -117.794984 61 2930ft 106kts
28-Nov-18 20:00 33.869867 -117.765890 164 2984ft 105kts
28-Nov-18 20:01 33.841106 -117.766836 192 3060ft 105kts
28-Nov-18 20:02 33.814886 -117.779955 205 3078ft 98kts
28-Nov-18 20:03 33.790382 -117.796887 209 2594ft 111kts
28-Nov-18 20:04 33.763837 -117.813162 207 1956ft 102kts
28-Nov-18 20:05 33.739119 -117.828963 205 1295ft 98kts
28-Nov-18 20:06 33.715039 -117.844076 208 856ft 97kts
28-Nov-18 20:07 33.691361 -117.859002 206 316ft 79kts
28-Nov-18 20:08 33.678233 -117.867218 210 60ft 22kts
28-Nov-18 20:09 33.678371 -117.869253 283 60ft 0kts

Navigation Log

Ident Type
Flight plan parsing failed, navigation log unavailable